sensor_id;sensor_type;location;lat;lon;timestamp;temperature;humidity
37310;DHT22;23195;47.744;7.358;2022-08-14T00:01:09;19.90;82.20
37310;DHT22;23195;47.744;7.358;2022-08-14T00:03:35;20.00;81.70
37310;DHT22;23195;47.744;7.358;2022-08-14T00:06:02;19.90;82.60
37310;DHT22;23195;47.744;7.358;2022-08-14T00:08:29;19.90;82.90
37310;DHT22;23195;47.744;7.358;2022-08-14T00:10:55;19.80;83.70
37310;DHT22;23195;47.744;7.358;2022-08-14T00:13:23;19.70;83.80
37310;DHT22;23195;47.744;7.358;2022-08-14T00:15:53;19.00;84.00
37310;DHT22;23195;47.744;7.358;2022-08-14T00:18:22;19.60;85.10
37310;DHT22;23195;47.744;7.358;2022-08-14T00:20:49;19.60;85.80
37310;DHT22;23195;47.744;7.358;2022-08-14T00:23:16;19.50;86.50
37310;DHT22;23195;47.744;7.358;2022-08-14T00:25:45;19.50;86.70
37310;DHT22;23195;47.744;7.358;2022-08-14T00:28:13;19.40;86.90
37310;DHT22;23195;47.744;7.358;2022-08-14T00:30:39;19.50;88.10
37310;DHT22;23195;47.744;7.358;2022-08-14T00:33:06;19.40;87.50
37310;DHT22;23195;47.744;7.358;2022-08-14T00:35:32;19.30;87.70
37310;DHT22;23195;47.744;7.358;2022-08-14T00:38:01;19.40;87.40
37310;DHT22;23195;47.744;7.358;2022-08-14T00:40:27;19.40;88.30
37310;DHT22;23195;47.744;7.358;2022-08-14T00:42:53;19.40;88.60
37310;DHT22;23195;47.744;7.358;2022-08-14T00:45:19;19.40;89.40
37310;DHT22;23195;47.744;7.358;2022-08-14T00:47:46;19.20;89.60
37310;DHT22;23195;47.744;7.358;2022-08-14T00:50:17;19.30;90.50
37310;DHT22;23195;47.744;7.358;2022-08-14T00:52:45;19.10;91.10
37310;DHT22;23195;47.744;7.358;2022-08-14T00:55:12;19.20;91.40
37310;DHT22;23195;47.744;7.358;2022-08-14T00:57:38;19.00;91.80
37310;DHT22;23195;47.744;7.358;2022-08-14T01:00:13;19.00;92.30
37310;DHT22;23195;47.744;7.358;2022-08-14T01:02:41;18.90;92.80
37310;DHT22;23195;47.744;7.358;2022-08-14T01:05:10;18.90;93.50
37310;DHT22;23195;47.744;7.358;2022-08-14T01:07:52;18.80;93.50
37310;DHT22;23195;47.744;7.358;2022-08-14T01:10:19;18.80;94.20
37310;DHT22;23195;47.744;7.358;2022-08-14T01:12:47;18.70;94.80
37310;DHT22;23195;47.744;7.358;2022-08-14T01:15:14;18.70;95.10
37310;DHT22;23195;47.744;7.358;2022-08-14T01:17:41;18.70;95.80
37310;DHT22;23195;47.744;7.358;2022-08-14T01:20:25;18.60;96.20
37310;DHT22;23195;47.744;7.358;2022-08-14T01:23:12;18.70;96.90
37310;DHT22;23195;47.744;7.358;2022-08-14T01:25:39;18.60;97.90
37310;DHT22;23195;47.744;7.358;2022-08-14T01:28:04;18.50;98.60
37310;DHT22;23195;47.744;7.358;2022-08-14T01:30:30;18.50;99.10
37310;DHT22;23195;47.744;7.358;2022-08-14T01:33:03;18.60;99.80
37310;DHT22;23195;47.744;7.358;2022-08-14T01:35:29;18.40;99.90
37310;DHT22;23195;47.744;7.358;2022-08-14T01:37:56;18.50;99.90
37310;DHT22;23195;47.744;7.358;2022-08-14T01:40:25;18.40;99.90
37310;DHT22;23195;47.744;7.358;2022-08-14T01:42:52;18.30;99.90
37310;DHT22;23195;47.744;7.358;2022-08-14T01:45:18;18.30;99.90
37310;DHT22;23195;47.744;7.358;2022-08-14T01:47:43;18.30;99.90
37310;DHT22;23195;47.744;7.358;2022-08-14T01:50:09;18.30;99.90
37310;DHT22;23195;47.744;7.358;2022-08-14T01:52:37;18.30;99.90
37310;DHT22;23195;47.744;7.358;2022-08-14T01:55:07;18.10;99.90
37310;DHT22;23195;47.744;7.358;2022-08-14T01:57:42;18.20;99.90
37310;DHT22;23195;47.744;7.358;2022-08-14T02:00:09;18.10;99.90
37310;DHT22;23195;47.744;7.358;2022-08-14T02:02:41;18.10;99.90
37310;DHT22;23195;47.744;7.358;2022-08-14T02:05:11;18.10;99.90
37310;DHT22;23195;47.744;7.358;2022-08-14T02:07:38;18.00;99.90
37310;DHT22;23195;47.744;7.358;2022-08-14T02:10:04;18.00;99.90
37310;DHT22;23195;47.744;7.358;2022-08-14T02:12:31;17.90;99.90
37310;DHT22;23195;47.744;7.358;2022-08-14T02:14:57;17.90;99.90
37310;DHT22;23195;47.744;7.358;2022-08-14T02:17:26;17.80;99.90
37310;DHT22;23195;47.744;7.358;2022-08-14T02:19:53;17.80;99.90
37310;DHT22;23195;47.744;7.358;2022-08-14T02:22:20;18.80;99.90
37310;DHT22;23195;47.744;7.358;2022-08-14T02:24:46;17.80;99.90
37310;DHT22;23195;47.744;7.358;2022-08-14T02:27:11;17.80;99.90
37310;DHT22;23195;47.744;7.358;2022-08-14T02:29:37;17.80;99.90
37310;DHT22;23195;47.744;7.358;2022-08-14T02:32:05;17.80;99.90
37310;DHT22;23195;47.744;7.358;2022-08-14T02:34:33;17.70;99.90
37310;DHT22;23195;47.744;7.358;2022-08-14T02:37:06;17.70;99.90
37310;DHT22;23195;47.744;7.358;2022-08-14T02:39:44;17.60;99.90
37310;DHT22;23195;47.744;7.358;2022-08-14T02:42:20;17.70;99.90
37310;DHT22;23195;47.744;7.358;2022-08-14T02:44:46;17.60;99.90
37310;DHT22;23195;47.744;7.358;2022-08-14T02:47:12;17.60;99.90
37310;DHT22;23195;47.744;7.358;2022-08-14T02:49:38;17.50;99.90
37310;DHT22;23195;47.744;7.358;2022-08-14T02:52:05;17.50;99.90
37310;DHT22;23195;47.744;7.358;2022-08-14T02:54:33;17.40;99.90
37310;DHT22;23195;47.744;7.358;2022-08-14T02:56:59;17.40;99.90
37310;DHT22;23195;47.744;7.358;2022-08-14T02:59:27;17.30;99.90
37310;DHT22;23195;47.744;7.358;2022-08-14T03:01:56;17.40;99.90
37310;DHT22;23195;47.744;7.358;2022-08-14T03:04:22;17.30;99.90
37310;DHT22;23195;47.744;7.358;2022-08-14T03:06:51;17.30;99.90
37310;DHT22;23195;47.744;7.358;2022-08-14T03:09:17;17.20;99.90
37310;DHT22;23195;47.744;7.358;2022-08-14T03:11:43;17.20;99.90
37310;DHT22;23195;47.744;7.358;2022-08-14T03:14:10;17.10;99.90
37310;DHT22;23195;47.744;7.358;2022-08-14T03:16:37;17.10;99.90
37310;DHT22;23195;47.744;7.358;2022-08-14T03:19:04;17.10;99.90
37310;DHT22;23195;47.744;7.358;2022-08-14T03:21:32;17.10;99.90
37310;DHT22;23195;47.744;7.358;2022-08-14T03:23:59;17.00;99.90
37310;DHT22;23195;47.744;7.358;2022-08-14T03:26:45;17.00;99.90
37310;DHT22;23195;47.744;7.358;2022-08-14T03:29:15;17.10;99.90
37310;DHT22;23195;47.744;7.358;2022-08-14T03:31:41;16.90;99.90
37310;DHT22;23195;47.744;7.358;2022-08-14T03:34:08;16.90;99.90
37310;DHT22;23195;47.744;7.358;2022-08-14T03:36:38;16.90;99.90
37310;DHT22;23195;47.744;7.358;2022-08-14T03:39:11;16.90;99.90
37310;DHT22;23195;47.744;7.358;2022-08-14T03:41:37;16.90;99.90
37310;DHT22;23195;47.744;7.358;2022-08-14T03:44:05;16.80;99.90
37310;DHT22;23195;47.744;7.358;2022-08-14T03:46:34;16.70;99.90
37310;DHT22;23195;47.744;7.358;2022-08-14T03:49:00;16.70;99.90
37310;DHT22;23195;47.744;7.358;2022-08-14T03:51:28;16.70;99.90
37310;DHT22;23195;47.744;7.358;2022-08-14T03:54:00;16.60;99.90
37310;DHT22;23195;47.744;7.358;2022-08-14T03:56:27;16.50;99.90
37310;DHT22;23195;47.744;7.358;2022-08-14T03:58:57;16.50;99.90
37310;DHT22;23195;47.744;7.358;2022-08-14T04:01:26;16.60;99.90
37310;DHT22;23195;47.744;7.358;2022-08-14T04:03:54;16.60;99.90
37310;DHT22;23195;47.744;7.358;2022-08-14T04:06:23;16.70;99.90
37310;DHT22;23195;47.744;7.358;2022-08-14T04:08:49;16.70;99.90
37310;DHT22;23195;47.744;7.358;2022-08-14T04:11:19;16.70;99.90
37310;DHT22;23195;47.744;7.358;2022-08-14T04:13:45;16.60;99.90
37310;DHT22;23195;47.744;7.358;2022-08-14T04:16:15;16.70;99.90
37310;DHT22;23195;47.744;7.358;2022-08-14T04:18:44;16.70;99.90
37310;DHT22;23195;47.744;7.358;2022-08-14T04:21:12;16.60;99.90
37310;DHT22;23195;47.744;7.358;2022-08-14T04:23:39;16.70;99.90
37310;DHT22;23195;47.744;7.358;2022-08-14T04:26:07;16.70;99.90
37310;DHT22;23195;47.744;7.358;2022-08-14T04:28:38;16.70;99.90
37310;DHT22;23195;47.744;7.358;2022-08-14T04:31:05;16.60;99.90
37310;DHT22;23195;47.744;7.358;2022-08-14T04:33:31;16.70;99.90
37310;DHT22;23195;47.744;7.358;2022-08-14T04:35:58;16.60;99.90
37310;DHT22;23195;47.744;7.358;2022-08-14T04:38:24;16.70;99.90
37310;DHT22;23195;47.744;7.358;2022-08-14T04:41:08;16.80;99.90
37310;DHT22;23195;47.744;7.358;2022-08-14T04:43:53;16.80;99.90
37310;DHT22;23195;47.744;7.358;2022-08-14T04:46:20;16.80;99.90
37310;DHT22;23195;47.744;7.358;2022-08-14T04:48:47;16.90;99.90
37310;DHT22;23195;47.744;7.358;2022-08-14T04:51:17;16.90;99.90
37310;DHT22;23195;47.744;7.358;2022-08-14T04:53:48;17.00;99.90
37310;DHT22;23195;47.744;7.358;2022-08-14T04:56:19;17.10;99.90
37310;DHT22;23195;47.744;7.358;2022-08-14T04:58:47;17.10;99.90
37310;DHT22;23195;47.744;7.358;2022-08-14T05:01:13;17.20;99.90
37310;DHT22;23195;47.744;7.358;2022-08-14T05:03:40;17.30;99.90
37310;DHT22;23195;47.744;7.358;2022-08-14T05:06:08;17.90;99.90
37310;DHT22;23195;47.744;7.358;2022-08-14T05:08:36;18.90;99.90
37310;DHT22;23195;47.744;7.358;2022-08-14T05:11:04;19.60;99.90
37310;DHT22;23195;47.744;7.358;2022-08-14T05:13:33;20.30;99.90
37310;DHT22;23195;47.744;7.358;2022-08-14T05:16:00;20.90;99.90
37310;DHT22;23195;47.744;7.358;2022-08-14T05:18:28;21.40;99.90
37310;DHT22;23195;47.744;7.358;2022-08-14T05:20:57;21.80;99.80
37310;DHT22;23195;47.744;7.358;2022-08-14T05:23:26;22.20;98.10
37310;DHT22;23195;47.744;7.358;2022-08-14T05:25:57;22.60;97.10
37310;DHT22;23195;47.744;7.358;2022-08-14T05:28:32;23.60;94.80
37310;DHT22;23195;47.744;7.358;2022-08-14T05:31:02;24.40;92.50
37310;DHT22;23195;47.744;7.358;2022-08-14T05:33:29;25.00;90.20
37310;DHT22;23195;47.744;7.358;2022-08-14T05:35:57;25.00;88.60
37310;DHT22;23195;47.744;7.358;2022-08-14T05:38:28;24.80;88.80
37310;DHT22;23195;47.744;7.358;2022-08-14T05:40:58;24.30;89.30
37310;DHT22;23195;47.744;7.358;2022-08-14T05:43:24;23.70;90.60
37310;DHT22;23195;47.744;7.358;2022-08-14T05:45:50;23.00;91.40
37310;DHT22;23195;47.744;7.358;2022-08-14T05:48:15;22.20;91.70
37310;DHT22;23195;47.744;7.358;2022-08-14T05:50:41;21.50;93.00
37310;DHT22;23195;47.744;7.358;2022-08-14T05:53:07;21.30;93.60
37310;DHT22;23195;47.744;7.358;2022-08-14T05:55:33;21.30;94.30
37310;DHT22;23195;47.744;7.358;2022-08-14T05:58:04;21.20;94.40
37310;DHT22;23195;47.744;7.358;2022-08-14T06:00:33;21.00;94.90
37310;DHT22;23195;47.744;7.358;2022-08-14T06:03:04;20.80;95.30
37310;DHT22;23195;47.744;7.358;2022-08-14T06:05:30;20.70;95.70
37310;DHT22;23195;47.744;7.358;2022-08-14T06:07:57;20.50;95.50
37310;DHT22;23195;47.744;7.358;2022-08-14T06:10:27;20.60;96.40
37310;DHT22;23195;47.744;7.358;2022-08-14T06:12:54;20.70;96.40
37310;DHT22;23195;47.744;7.358;2022-08-14T06:15:22;20.90;96.10
37310;DHT22;23195;47.744;7.358;2022-08-14T06:17:50;20.90;95.50
37310;DHT22;23195;47.744;7.358;2022-08-14T06:20:19;21.00;95.90
37310;DHT22;23195;47.744;7.358;2022-08-14T06:22:45;21.10;95.00
37310;DHT22;23195;47.744;7.358;2022-08-14T06:25:13;21.00;95.30
37310;DHT22;23195;47.744;7.358;2022-08-14T06:27:44;21.10;95.20
37310;DHT22;23195;47.744;7.358;2022-08-14T06:30:13;21.20;94.70
37310;DHT22;23195;47.744;7.358;2022-08-14T06:32:39;21.40;95.00
37310;DHT22;23195;47.744;7.358;2022-08-14T06:35:07;21.50;94.40
37310;DHT22;23195;47.744;7.358;2022-08-14T06:37:48;21.50;93.60
37310;DHT22;23195;47.744;7.358;2022-08-14T06:40:19;21.40;93.10
37310;DHT22;23195;47.744;7.358;2022-08-14T06:42:48;21.60;93.00
37310;DHT22;23195;47.744;7.358;2022-08-14T06:45:15;21.80;92.40
37310;DHT22;23195;47.744;7.358;2022-08-14T06:47:43;21.90;92.60
37310;DHT22;23195;47.744;7.358;2022-08-14T06:50:13;22.20;92.00
37310;DHT22;23195;47.744;7.358;2022-08-14T06:52:40;22.50;91.70
37310;DHT22;23195;47.744;7.358;2022-08-14T06:55:08;22.90;90.00
37310;DHT22;23195;47.744;7.358;2022-08-14T06:57:37;23.70;88.20
37310;DHT22;23195;47.744;7.358;2022-08-14T07:00:18;25.10;81.80
37310;DHT22;23195;47.744;7.358;2022-08-14T07:02:44;26.40;78.20
37310;DHT22;23195;47.744;7.358;2022-08-14T07:05:28;28.30;71.90
37310;DHT22;23195;47.744;7.358;2022-08-14T07:08:29;29.60;68.50
37310;DHT22;23195;47.744;7.358;2022-08-14T07:11:00;30.40;63.90
37310;DHT22;23195;47.744;7.358;2022-08-14T07:13:28;31.30;61.70
37310;DHT22;23195;47.744;7.358;2022-08-14T07:15:58;31.80;59.00
37310;DHT22;23195;47.744;7.358;2022-08-14T07:18:30;32.50;57.50
37310;DHT22;23195;47.744;7.358;2022-08-14T07:20:57;32.90;55.60
37310;DHT22;23195;47.744;7.358;2022-08-14T07:23:26;33.40;54.80
37310;DHT22;23195;47.744;7.358;2022-08-14T07:25:54;34.10;53.20
37310;DHT22;23195;47.744;7.358;2022-08-14T07:28:26;33.90;52.60
37310;DHT22;23195;47.744;7.358;2022-08-14T07:30:55;33.30;53.20
37310;DHT22;23195;47.744;7.358;2022-08-14T07:33:30;33.40;53.00
37310;DHT22;23195;47.744;7.358;2022-08-14T07:35:58;33.10;53.00
37310;DHT22;23195;47.744;7.358;2022-08-14T07:38:25;32.80;53.20
37310;DHT22;23195;47.744;7.358;2022-08-14T07:40:52;32.50;52.60
37310;DHT22;23195;47.744;7.358;2022-08-14T07:43:22;32.30;52.50
37310;DHT22;23195;47.744;7.358;2022-08-14T07:45:50;32.10;53.10
37310;DHT22;23195;47.744;7.358;2022-08-14T07:48:22;32.40;53.10
37310;DHT22;23195;47.744;7.358;2022-08-14T07:50:51;32.00;52.90
37310;DHT22;23195;47.744;7.358;2022-08-14T07:53:19;32.00;54.40
37310;DHT22;23195;47.744;7.358;2022-08-14T07:55:46;32.70;53.50
37310;DHT22;23195;47.744;7.358;2022-08-14T07:58:16;33.20;52.60
37310;DHT22;23195;47.744;7.358;2022-08-14T08:00:45;33.70;51.60
37310;DHT22;23195;47.744;7.358;2022-08-14T08:03:11;33.30;52.20
37310;DHT22;23195;47.744;7.358;2022-08-14T08:05:39;32.70;53.00
37310;DHT22;23195;47.744;7.358;2022-08-14T08:08:06;31.60;54.00
37310;DHT22;23195;47.744;7.358;2022-08-14T08:10:34;30.90;54.50
37310;DHT22;23195;47.744;7.358;2022-08-14T08:13:05;30.20;55.30
37310;DHT22;23195;47.744;7.358;2022-08-14T08:15:38;29.60;57.40
37310;DHT22;23195;47.744;7.358;2022-08-14T08:18:07;28.50;58.70
37310;DHT22;23195;47.744;7.358;2022-08-14T08:20:42;28.70;58.10
37310;DHT22;23195;47.744;7.358;2022-08-14T08:23:21;29.00;57.60
37310;DHT22;23195;47.744;7.358;2022-08-14T08:25:49;29.00;58.10
37310;DHT22;23195;47.744;7.358;2022-08-14T08:28:24;29.10;57.60
37310;DHT22;23195;47.744;7.358;2022-08-14T08:31:01;28.90;57.60
37310;DHT22;23195;47.744;7.358;2022-08-14T08:33:31;29.50;58.00
37310;DHT22;23195;47.744;7.358;2022-08-14T08:36:00;30.00;56.60
37310;DHT22;23195;47.744;7.358;2022-08-14T08:38:27;30.40;56.20
37310;DHT22;23195;47.744;7.358;2022-08-14T08:40:59;31.00;55.80
37310;DHT22;23195;47.744;7.358;2022-08-14T08:43:34;30.90;54.90
37310;DHT22;23195;47.744;7.358;2022-08-14T08:51:09;29.90;56.60
37310;DHT22;23195;47.744;7.358;2022-08-14T08:53:59;29.60;57.50
37310;DHT22;23195;47.744;7.358;2022-08-14T08:56:47;29.40;58.40
37310;DHT22;23195;47.744;7.358;2022-08-14T08:59:28;29.70;57.50
37310;DHT22;23195;47.744;7.358;2022-08-14T09:02:30;29.90;56.30
37310;DHT22;23195;47.744;7.358;2022-08-14T09:05:01;29.70;56.80
37310;DHT22;23195;47.744;7.358;2022-08-14T09:07:28;30.20;56.70
37310;DHT22;23195;47.744;7.358;2022-08-14T09:09:54;30.30;56.30
37310;DHT22;23195;47.744;7.358;2022-08-14T09:12:21;30.40;56.10
37310;DHT22;23195;47.744;7.358;2022-08-14T09:14:47;30.30;56.30
37310;DHT22;23195;47.744;7.358;2022-08-14T09:17:13;30.00;56.90
37310;DHT22;23195;47.744;7.358;2022-08-14T09:19:40;29.80;57.60
37310;DHT22;23195;47.744;7.358;2022-08-14T09:22:06;29.50;57.80
37310;DHT22;23195;47.744;7.358;2022-08-14T09:24:32;29.60;58.30
37310;DHT22;23195;47.744;7.358;2022-08-14T09:27:01;30.10;57.80
37310;DHT22;23195;47.744;7.358;2022-08-14T09:29:26;30.30;56.70
37310;DHT22;23195;47.744;7.358;2022-08-14T09:31:57;30.40;56.50
37310;DHT22;23195;47.744;7.358;2022-08-14T09:37:47;30.60;56.60
37310;DHT22;23195;47.744;7.358;2022-08-14T09:43:08;30.00;57.50
37310;DHT22;23195;47.744;7.358;2022-08-14T09:45:48;29.80;58.40
37310;DHT22;23195;47.744;7.358;2022-08-14T09:48:15;29.50;58.90
37310;DHT22;23195;47.744;7.358;2022-08-14T09:50:48;29.30;59.00
37310;DHT22;23195;47.744;7.358;2022-08-14T09:53:38;29.20;59.40
37310;DHT22;23195;47.744;7.358;2022-08-14T09:56:07;29.20;60.50
37310;DHT22;23195;47.744;7.358;2022-08-14T09:58:41;29.40;60.70
37310;DHT22;23195;47.744;7.358;2022-08-14T10:01:13;29.00;61.40
37310;DHT22;23195;47.744;7.358;2022-08-14T10:04:16;29.20;60.90
37310;DHT22;23195;47.744;7.358;2022-08-14T10:06:44;29.30;60.40
37310;DHT22;23195;47.744;7.358;2022-08-14T10:09:10;29.50;60.00
37310;DHT22;23195;47.744;7.358;2022-08-14T10:11:38;29.60;60.00
37310;DHT22;23195;47.744;7.358;2022-08-14T10:14:17;29.50;60.60
37310;DHT22;23195;47.744;7.358;2022-08-14T10:16:45;29.90;61.50
37310;DHT22;23195;47.744;7.358;2022-08-14T10:19:14;30.20;60.60
37310;DHT22;23195;47.744;7.358;2022-08-14T10:21:42;30.40;60.20
37310;DHT22;23195;47.744;7.358;2022-08-14T10:24:09;30.60;63.30
37310;DHT22;23195;47.744;7.358;2022-08-14T10:26:36;30.80;64.40
37310;DHT22;23195;47.744;7.358;2022-08-14T10:29:07;30.90;63.30
37310;DHT22;23195;47.744;7.358;2022-08-14T10:31:34;31.10;65.30
37310;DHT22;23195;47.744;7.358;2022-08-14T10:34:05;30.60;65.40
37310;DHT22;23195;47.744;7.358;2022-08-14T10:36:34;30.20;66.80
37310;DHT22;23195;47.744;7.358;2022-08-14T10:39:06;30.50;67.50
37310;DHT22;23195;47.744;7.358;2022-08-14T10:41:40;30.70;67.70
37310;DHT22;23195;47.744;7.358;2022-08-14T10:46:45;30.60;69.60
37310;DHT22;23195;47.744;7.358;2022-08-14T10:49:25;30.60;68.90
37310;DHT22;23195;47.744;7.358;2022-08-14T10:52:07;30.50;68.60
37310;DHT22;23195;47.744;7.358;2022-08-14T10:54:45;30.60;68.20
37310;DHT22;23195;47.744;7.358;2022-08-14T10:57:21;30.60;67.90
37310;DHT22;23195;47.744;7.358;2022-08-14T10:59:51;30.00;68.40
37310;DHT22;23195;47.744;7.358;2022-08-14T11:02:22;30.50;68.90
37310;DHT22;23195;47.744;7.358;2022-08-14T11:05:09;30.50;69.40
37310;DHT22;23195;47.744;7.358;2022-08-14T11:10:20;30.30;70.20
37310;DHT22;23195;47.744;7.358;2022-08-14T11:12:49;30.30;70.30
37310;DHT22;23195;47.744;7.358;2022-08-14T11:15:21;30.30;70.40
37310;DHT22;23195;47.744;7.358;2022-08-14T11:17:50;29.20;69.20
37310;DHT22;23195;47.744;7.358;2022-08-14T11:20:19;30.30;70.00
37310;DHT22;23195;47.744;7.358;2022-08-14T11:22:46;30.20;70.70
37310;DHT22;23195;47.744;7.358;2022-08-14T11:25:14;30.10;71.00
37310;DHT22;23195;47.744;7.358;2022-08-14T11:27:51;30.20;71.30
37310;DHT22;23195;47.744;7.358;2022-08-14T11:30:20;30.10;71.40
37310;DHT22;23195;47.744;7.358;2022-08-14T11:32:57;29.90;71.30
37310;DHT22;23195;47.744;7.358;2022-08-14T11:35:26;29.80;71.80
37310;DHT22;23195;47.744;7.358;2022-08-14T11:37:59;29.70;71.50
37310;DHT22;23195;47.744;7.358;2022-08-14T11:40:28;29.70;71.50
37310;DHT22;23195;47.744;7.358;2022-08-14T11:42:56;29.90;71.20
37310;DHT22;23195;47.744;7.358;2022-08-14T11:45:24;30.10;70.70
37310;DHT22;23195;47.744;7.358;2022-08-14T11:47:53;30.00;68.30
37310;DHT22;23195;47.744;7.358;2022-08-14T11:50:24;31.10;67.90
37310;DHT22;23195;47.744;7.358;2022-08-14T11:52:52;29.70;66.20
37310;DHT22;23195;47.744;7.358;2022-08-14T11:55:18;30.20;66.00
37310;DHT22;23195;47.744;7.358;2022-08-14T11:57:44;30.20;62.40
37310;DHT22;23195;47.744;7.358;2022-08-14T12:00:18;29.90;60.80
37310;DHT22;23195;47.744;7.358;2022-08-14T12:02:54;29.60;59.50
37310;DHT22;23195;47.744;7.358;2022-08-14T12:05:36;29.40;59.30
37310;DHT22;23195;47.744;7.358;2022-08-14T12:08:06;29.30;58.80
37310;DHT22;23195;47.744;7.358;2022-08-14T12:10:36;29.40;58.40
37310;DHT22;23195;47.744;7.358;2022-08-14T12:13:23;29.50;58.10
37310;DHT22;23195;47.744;7.358;2022-08-14T12:16:07;29.70;57.20
37310;DHT22;23195;47.744;7.358;2022-08-14T12:18:53;29.90;57.60
37310;DHT22;23195;47.744;7.358;2022-08-14T12:21:25;30.00;56.80
37310;DHT22;23195;47.744;7.358;2022-08-14T12:24:06;29.70;57.40
37310;DHT22;23195;47.744;7.358;2022-08-14T12:26:33;29.70;58.20
37310;DHT22;23195;47.744;7.358;2022-08-14T12:31:34;29.10;60.00
37310;DHT22;23195;47.744;7.358;2022-08-14T12:34:03;28.80;61.40
37310;DHT22;23195;47.744;7.358;2022-08-14T12:36:30;28.50;63.30
37310;DHT22;23195;47.744;7.358;2022-08-14T12:38:56;28.30;64.50
37310;DHT22;23195;47.744;7.358;2022-08-14T12:41:24;28.20;65.50
37310;DHT22;23195;47.744;7.358;2022-08-14T12:43:55;28.10;65.90
37310;DHT22;23195;47.744;7.358;2022-08-14T12:46:37;28.00;66.60
37310;DHT22;23195;47.744;7.358;2022-08-14T12:49:10;28.00;67.70
37310;DHT22;23195;47.744;7.358;2022-08-14T12:51:38;28.00;67.60
37310;DHT22;23195;47.744;7.358;2022-08-14T12:54:15;27.90;68.10
37310;DHT22;23195;47.744;7.358;2022-08-14T12:56:42;28.00;68.40
37310;DHT22;23195;47.744;7.358;2022-08-14T12:59:10;28.00;68.80
37310;DHT22;23195;47.744;7.358;2022-08-14T13:01:37;28.10;69.80
37310;DHT22;23195;47.744;7.358;2022-08-14T13:04:14;28.10;69.60
37310;DHT22;23195;47.744;7.358;2022-08-14T13:06:46;28.00;69.50
37310;DHT22;23195;47.744;7.358;2022-08-14T13:09:14;27.90;69.80
37310;DHT22;23195;47.744;7.358;2022-08-14T13:11:49;27.80;70.20
37310;DHT22;23195;47.744;7.358;2022-08-14T13:14:18;27.60;70.70
37310;DHT22;23195;47.744;7.358;2022-08-14T13:16:50;27.60;71.50
37310;DHT22;23195;47.744;7.358;2022-08-14T13:19:18;27.60;72.00
37310;DHT22;23195;47.744;7.358;2022-08-14T13:21:47;27.60;72.30
37310;DHT22;23195;47.744;7.358;2022-08-14T13:24:13;27.60;72.50
37310;DHT22;23195;47.744;7.358;2022-08-14T13:26:45;27.60;72.50
37310;DHT22;23195;47.744;7.358;2022-08-14T13:29:13;27.80;72.20
37310;DHT22;23195;47.744;7.358;2022-08-14T13:31:43;28.00;72.10
37310;DHT22;23195;47.744;7.358;2022-08-14T13:34:12;28.10;72.30
37310;DHT22;23195;47.744;7.358;2022-08-14T13:36:38;28.30;71.70
37310;DHT22;23195;47.744;7.358;2022-08-14T13:39:05;28.50;71.70
37310;DHT22;23195;47.744;7.358;2022-08-14T13:41:32;28.50;72.30
37310;DHT22;23195;47.744;7.358;2022-08-14T13:43:59;28.50;73.00
37310;DHT22;23195;47.744;7.358;2022-08-14T13:46:25;28.30;73.60
37310;DHT22;23195;47.744;7.358;2022-08-14T13:48:51;28.40;73.70
37310;DHT22;23195;47.744;7.358;2022-08-14T13:51:22;28.50;74.00
37310;DHT22;23195;47.744;7.358;2022-08-14T13:53:52;28.50;73.90
37310;DHT22;23195;47.744;7.358;2022-08-14T13:56:20;28.40;73.80
37310;DHT22;23195;47.744;7.358;2022-08-14T13:58:48;28.40;73.70
37310;DHT22;23195;47.744;7.358;2022-08-14T14:01:15;28.30;73.40
37310;DHT22;23195;47.744;7.358;2022-08-14T14:03:44;28.20;74.40
37310;DHT22;23195;47.744;7.358;2022-08-14T14:06:14;28.10;75.00
37310;DHT22;23195;47.744;7.358;2022-08-14T14:08:46;28.20;75.10
37310;DHT22;23195;47.744;7.358;2022-08-14T14:11:17;28.40;75.20
37310;DHT22;23195;47.744;7.358;2022-08-14T14:13:55;28.40;75.10
37310;DHT22;23195;47.744;7.358;2022-08-14T14:16:22;28.30;75.60
37310;DHT22;23195;47.744;7.358;2022-08-14T14:18:53;28.10;76.50
37310;DHT22;23195;47.744;7.358;2022-08-14T14:21:25;28.10;77.20
37310;DHT22;23195;47.744;7.358;2022-08-14T14:23:54;28.00;76.90
37310;DHT22;23195;47.744;7.358;2022-08-14T14:26:21;27.80;77.30
37310;DHT22;23195;47.744;7.358;2022-08-14T14:28:50;27.80;77.90
37310;DHT22;23195;47.744;7.358;2022-08-14T14:31:24;27.70;78.50
37310;DHT22;23195;47.744;7.358;2022-08-14T14:33:52;27.70;78.60
37310;DHT22;23195;47.744;7.358;2022-08-14T14:36:27;27.60;78.90
37310;DHT22;23195;47.744;7.358;2022-08-14T14:38:54;27.70;78.20
37310;DHT22;23195;47.744;7.358;2022-08-14T14:41:26;27.70;78.50
37310;DHT22;23195;47.744;7.358;2022-08-14T14:43:54;27.80;79.10
37310;DHT22;23195;47.744;7.358;2022-08-14T14:46:22;27.70;78.60
37310;DHT22;23195;47.744;7.358;2022-08-14T14:48:50;27.70;79.00
37310;DHT22;23195;47.744;7.358;2022-08-14T14:51:17;27.80;79.00
37310;DHT22;23195;47.744;7.358;2022-08-14T14:53:44;27.60;79.40
37310;DHT22;23195;47.744;7.358;2022-08-14T14:56:11;27.60;79.70
37310;DHT22;23195;47.744;7.358;2022-08-14T14:58:39;27.50;80.10
37310;DHT22;23195;47.744;7.358;2022-08-14T15:01:07;27.50;80.10
37310;DHT22;23195;47.744;7.358;2022-08-14T15:03:34;27.30;80.40
37310;DHT22;23195;47.744;7.358;2022-08-14T15:06:01;27.10;81.60
37310;DHT22;23195;47.744;7.358;2022-08-14T15:08:27;27.00;81.50
37310;DHT22;23195;47.744;7.358;2022-08-14T15:10:58;26.90;81.70
37310;DHT22;23195;47.744;7.358;2022-08-14T15:13:25;26.90;81.90
37310;DHT22;23195;47.744;7.358;2022-08-14T15:15:51;26.80;82.60
37310;DHT22;23195;47.744;7.358;2022-08-14T15:18:20;26.70;83.10
37310;DHT22;23195;47.744;7.358;2022-08-14T15:20:47;26.50;83.60
37310;DHT22;23195;47.744;7.358;2022-08-14T15:23:13;26.40;84.40
37310;DHT22;23195;47.744;7.358;2022-08-14T15:25:42;26.30;85.00
37310;DHT22;23195;47.744;7.358;2022-08-14T15:28:10;26.20;85.20
37310;DHT22;23195;47.744;7.358;2022-08-14T15:30:42;26.20;85.60
37310;DHT22;23195;47.744;7.358;2022-08-14T15:33:09;26.20;85.90
37310;DHT22;23195;47.744;7.358;2022-08-14T15:35:36;26.30;86.00
37310;DHT22;23195;47.744;7.358;2022-08-14T15:38:06;26.30;85.80
37310;DHT22;23195;47.744;7.358;2022-08-14T15:40:39;26.30;85.90
37310;DHT22;23195;47.744;7.358;2022-08-14T15:43:07;26.30;86.30
37310;DHT22;23195;47.744;7.358;2022-08-14T15:45:36;26.20;86.50
37310;DHT22;23195;47.744;7.358;2022-08-14T15:48:03;26.20;86.50
37310;DHT22;23195;47.744;7.358;2022-08-14T15:50:30;26.30;86.90
37310;DHT22;23195;47.744;7.358;2022-08-14T15:52:56;26.30;87.20
37310;DHT22;23195;47.744;7.358;2022-08-14T15:55:22;26.20;87.30
37310;DHT22;23195;47.744;7.358;2022-08-14T15:57:48;26.20;87.40
37310;DHT22;23195;47.744;7.358;2022-08-14T16:00:22;26.00;87.70
37310;DHT22;23195;47.744;7.358;2022-08-14T16:03:09;26.00;88.10
37310;DHT22;23195;47.744;7.358;2022-08-14T16:05:38;25.90;88.40